Time;durP1;ratioP1;P1;durP2;ratioP2;P2;SDS_P1;SDS_P2;PMS_P1;PMS_P2;Temp;Humidity;BMP_temperature;BMP_pressure;BME280_temperature;BME280_humidity;BME280_pressure;Samples;Min_cycle;Max_cycle;Signal;HPM_P1;HPM_P2
2024/03/13 00:00:10;;;;;;;18.37;8.00;;;7.10;99.90;;;;;;5050220;28;20578;-66
2024/03/13 00:02:38;;;;;;;19.60;7.87;;;7.00;99.90;;;;;;5048689;28;20533;-67
2024/03/13 00:05:09;;;;;;;15.03;6.73;;;7.10;99.90;;;;;;5050236;28;21202;-66
2024/03/13 00:07:38;;;;;;;14.70;8.17;;;7.00;99.90;;;;;;5048247;28;20973;-67
2024/03/13 00:10:07;;;;;;;16.23;7.07;;;7.00;99.90;;;;;;5052993;28;21039;-67
2024/03/13 00:12:35;;;;;;;17.00;7.57;;;7.00;99.90;;;;;;5047666;28;21066;-68
2024/03/13 00:15:06;;;;;;;16.93;6.90;;;7.00;99.90;;;;;;5048048;28;20463;-67
2024/03/13 00:17:34;;;;;;;14.70;6.70;;;7.00;99.90;;;;;;5048406;28;20448;-66
2024/03/13 00:20:03;;;;;;;15.70;5.93;;;7.00;99.90;;;;;;5060262;28;21008;-67
2024/03/13 00:22:31;;;;;;;14.30;6.00;;;6.90;99.90;;;;;;5049406;28;20492;-67
2024/03/13 00:24:59;;;;;;;15.50;5.20;;;6.90;99.90;;;;;;5047853;28;20493;-67
2024/03/13 00:27:27;;;;;;;13.53;4.40;;;6.90;99.90;;;;;;5050336;28;21013;-67
2024/03/13 00:29:55;;;;;;;15.57;5.00;;;6.90;99.90;;;;;;5051408;28;20858;-67
2024/03/13 00:32:25;;;;;;;10.47;3.33;;;6.90;99.90;;;;;;5048993;28;20452;-67
2024/03/13 00:34:53;;;;;;;9.87;3.47;;;6.90;99.90;;;;;;5054765;28;20439;-67
2024/03/13 00:37:21;;;;;;;9.33;3.20;;;6.90;99.90;;;;;;5034238;28;20498;-68
2024/03/13 00:39:50;;;;;;;11.40;3.47;;;6.80;99.90;;;;;;5051155;28;20475;-67
2024/03/13 00:42:18;;;;;;;11.00;3.43;;;6.70;99.90;;;;;;5038769;28;20479;-68
2024/03/13 00:44:46;;;;;;;10.10;3.70;;;6.70;99.90;;;;;;5047118;28;20444;-66
2024/03/13 00:47:14;;;;;;;9.50;3.47;;;6.80;99.90;;;;;;5049692;28;20459;-68
2024/03/13 00:49:44;;;;;;;10.80;3.30;;;6.70;99.90;;;;;;5049077;28;20468;-67
2024/03/13 00:52:12;;;;;;;9.00;3.13;;;6.70;99.90;;;;;;5045610;28;20440;-67
2024/03/13 00:54:45;;;;;;;10.20;2.90;;;6.70;99.90;;;;;;5046265;28;21184;-68
2024/03/13 00:57:13;;;;;;;10.20;3.37;;;6.70;99.90;;;;;;5045551;28;20558;-66
2024/03/13 00:59:41;;;;;;;8.23;2.40;;;6.70;99.90;;;;;;5049747;28;20490;-68
2024/03/13 01:02:10;;;;;;;8.37;1.97;;;6.60;99.90;;;;;;5046461;28;20523;-67
2024/03/13 01:04:38;;;;;;;8.70;2.20;;;6.60;99.90;;;;;;5047163;28;20450;-67
2024/03/13 01:07:07;;;;;;;7.57;1.73;;;6.60;99.90;;;;;;5050377;28;20443;-68
2024/03/13 01:09:37;;;;;;;8.30;2.50;;;6.60;99.90;;;;;;5048757;28;20458;-67
2024/03/13 01:12:06;;;;;;;9.00;2.60;;;6.60;99.90;;;;;;5049430;28;20940;-67
2024/03/13 01:14:35;;;;;;;8.63;2.10;;;6.60;99.90;;;;;;5049511;28;20939;-67
2024/03/13 01:17:03;;;;;;;8.47;2.47;;;6.60;99.90;;;;;;5049666;28;20454;-66
2024/03/13 01:19:34;;;;;;;8.43;1.80;;;6.50;99.90;;;;;;5049577;28;20514;-66
2024/03/13 01:22:05;;;;;;;7.57;1.87;;;6.60;99.90;;;;;;5048776;28;20925;-66
2024/03/13 01:24:36;;;;;;;8.87;1.70;;;6.60;99.90;;;;;;5048466;28;20545;-67
2024/03/13 01:27:04;;;;;;;7.73;2.03;;;6.60;99.90;;;;;;5054676;28;20502;-66
2024/03/13 01:29:32;;;;;;;7.60;1.77;;;6.60;99.90;;;;;;5048726;28;20475;-67
2024/03/13 01:32:00;;;;;;;7.27;1.57;;;6.60;99.90;;;;;;5048214;28;20486;-67
2024/03/13 01:34:28;;;;;;;7.70;1.80;;;6.50;99.90;;;;;;5048419;28;20564;-67
2024/03/13 01:39:43;;;;;;;7.93;1.50;;;6.60;99.90;;;;;;5038259;28;20479;-67
2024/03/13 01:56:22;;;;;;;7.67;1.33;;;6.60;99.90;;;;;;5042840;28;20464;-67
2024/03/13 01:59:02;;;;;;;7.10;1.30;;;6.60;99.90;;;;;;5048708;28;20494;-66
2024/03/13 02:04:16;;;;;;;6.40;0.90;;;6.60;99.90;;;;;;5055368;28;20892;-67
2024/03/13 02:06:46;;;;;;;9.57;1.47;;;6.50;99.90;;;;;;5049295;28;20467;-68
2024/03/13 02:09:15;;;;;;;7.73;1.50;;;6.50;99.90;;;;;;5048899;28;20559;-68
2024/03/13 02:11:45;;;;;;;6.60;1.07;;;6.50;99.90;;;;;;5051120;28;20471;-67
2024/03/13 02:14:15;;;;;;;6.97;1.20;;;6.40;99.90;;;;;;5049014;28;20854;-67
2024/03/13 02:16:44;;;;;;;8.13;1.70;;;6.50;99.90;;;;;;5049513;28;20462;-67
2024/03/13 02:19:13;;;;;;;7.80;1.30;;;6.50;99.90;;;;;;5048637;28;20526;-67
2024/03/13 02:21:41;;;;;;;7.03;1.10;;;6.50;99.90;;;;;;5049214;28;20476;-67
2024/03/13 02:24:09;;;;;;;8.87;1.33;;;6.50;99.90;;;;;;5048598;28;20491;-67
2024/03/13 02:26:42;;;;;;;7.33;1.17;;;6.60;99.90;;;;;;5031432;28;20511;-67
2024/03/13 02:29:12;;;;;;;7.07;1.20;;;6.60;99.90;;;;;;5032272;28;20467;-67
2024/03/13 02:31:41;;;;;;;6.63;1.00;;;6.50;99.90;;;;;;5027305;28;20893;-67
2024/03/13 02:34:09;;;;;;;7.70;1.20;;;6.60;99.90;;;;;;5031341;28;20555;-66
2024/03/13 02:36:38;;;;;;;6.40;0.93;;;6.50;99.90;;;;;;5031087;28;20474;-67
2024/03/13 02:39:06;;;;;;;7.17;1.27;;;6.50;99.90;;;;;;5031361;28;20857;-67
2024/03/13 02:41:34;;;;;;;6.60;1.23;;;6.50;99.90;;;;;;5030444;28;20491;-67
2024/03/13 02:44:02;;;;;;;7.67;1.30;;;6.40;99.90;;;;;;5030426;28;20467;-67
2024/03/13 02:46:30;;;;;;;6.60;1.00;;;6.40;99.90;;;;;;5030675;28;21232;-67
2024/03/13 02:48:58;;;;;;;7.37;1.47;;;6.50;99.90;;;;;;5031137;28;20843;-67
2024/03/13 02:51:26;;;;;;;7.60;1.40;;;6.50;99.90;;;;;;5038246;28;20468;-67
2024/03/13 02:53:54;;;;;;;6.60;1.00;;;6.50;99.90;;;;;;5031617;28;20993;-67
2024/03/13 02:56:22;;;;;;;6.70;1.00;;;6.50;99.90;;;;;;5025928;28;20472;-67
2024/03/13 02:58:52;;;;;;;6.33;0.77;;;6.40;99.90;;;;;;5030577;28;20997;-67
2024/03/13 03:01:20;;;;;;;6.53;0.87;;;6.50;99.90;;;;;;5029855;28;20475;-67
2024/03/13 03:03:49;;;;;;;6.93;0.90;;;6.50;99.90;;;;;;5041391;28;20900;-67
2024/03/13 03:06:17;;;;;;;7.50;1.23;;;6.60;99.90;;;;;;5029769;28;20506;-67
2024/03/13 03:08:46;;;;;;;7.03;1.00;;;6.60;99.90;;;;;;5026845;28;20479;-67
2024/03/13 03:11:14;;;;;;;8.10;1.20;;;6.60;99.90;;;;;;5028428;28;20481;-67
2024/03/13 03:13:42;;;;;;;6.87;0.90;;;6.60;99.90;;;;;;5027499;28;20534;-67
2024/03/13 03:16:10;;;;;;;6.60;0.90;;;6.60;99.90;;;;;;5030818;28;20460;-68
2024/03/13 03:18:38;;;;;;;6.80;1.00;;;6.60;99.90;;;;;;5030179;28;20464;-67
2024/03/13 03:21:08;;;;;;;7.17;0.80;;;6.60;99.90;;;;;;5029454;28;20505;-67
2024/03/13 03:23:36;;;;;;;6.70;0.90;;;6.60;99.90;;;;;;5031276;28;20460;-67
2024/03/13 03:26:04;;;;;;;6.83;1.00;;;6.50;99.90;;;;;;5029873;28;20468;-67
2024/03/13 03:28:32;;;;;;;6.30;0.60;;;6.60;99.90;;;;;;5029768;28;20487;-67
2024/03/13 03:31:04;;;;;;;7.80;0.77;;;6.60;99.90;;;;;;5029793;28;20475;-67
2024/03/13 03:33:32;;;;;;;6.90;0.80;;;6.60;99.90;;;;;;5033587;28;20545;-67
2024/03/13 03:36:01;;;;;;;6.30;0.70;;;6.50;99.90;;;;;;5027196;28;20500;-67
2024/03/13 03:38:29;;;;;;;6.80;0.70;;;6.50;99.90;;;;;;5023968;28;20563;-67
2024/03/13 03:40:57;;;;;;;6.30;0.73;;;6.40;99.90;;;;;;5027727;28;20865;-67
2024/03/13 03:43:26;;;;;;;7.13;1.10;;;6.40;99.90;;;;;;5036038;28;20537;-67
2024/03/13 03:45:54;;;;;;;6.97;0.67;;;6.40;99.90;;;;;;5029844;28;20474;-67
2024/03/13 03:48:22;;;;;;;6.90;0.80;;;6.40;99.90;;;;;;5029316;28;20489;-67
2024/03/13 03:50:50;;;;;;;6.33;0.70;;;6.30;99.90;;;;;;5033376;28;20766;-67
2024/03/13 03:53:19;;;;;;;7.00;1.10;;;6.20;99.90;;;;;;5026852;28;20433;-67
2024/03/13 03:55:47;;;;;;;6.33;1.00;;;6.20;99.90;;;;;;5032483;28;20498;-67
2024/03/13 03:58:15;;;;;;;6.07;0.60;;;6.30;99.90;;;;;;5031393;28;20468;-66
2024/03/13 04:00:43;;;;;;;6.43;0.80;;;6.30;99.90;;;;;;5030061;28;20488;-67
2024/03/13 04:03:12;;;;;;;6.40;0.70;;;6.40;99.90;;;;;;5018971;28;20499;-67
2024/03/13 04:05:40;;;;;;;6.30;0.80;;;6.50;99.90;;;;;;5029834;28;20456;-67
2024/03/13 04:08:08;;;;;;;7.20;1.10;;;6.50;99.90;;;;;;5029847;28;20468;-67
2024/03/13 04:10:38;;;;;;;6.47;0.80;;;6.50;99.90;;;;;;5029645;28;20464;-67
2024/03/13 04:13:07;;;;;;;7.43;1.00;;;6.50;99.90;;;;;;5037349;28;20902;-67
2024/03/13 04:15:36;;;;;;;6.83;0.90;;;6.60;99.90;;;;;;5029124;28;20464;-67
2024/03/13 04:18:05;;;;;;;6.40;0.70;;;6.50;99.90;;;;;;5029783;28;20451;-67
2024/03/13 04:20:34;;;;;;;6.30;0.70;;;6.30;99.90;;;;;;5031163;28;20862;-67
2024/03/13 04:23:02;;;;;;;6.27;0.73;;;6.30;99.90;;;;;;5029148;28;20525;-67
2024/03/13 04:25:32;;;;;;;6.80;1.00;;;6.20;99.90;;;;;;5025482;28;20481;-67
2024/03/13 04:28:00;;;;;;;6.40;0.70;;;6.30;99.90;;;;;;5027286;28;20482;-68
2024/03/13 04:30:29;;;;;;;6.77;0.60;;;6.20;99.90;;;;;;5029867;28;21012;-68
2024/03/13 04:32:57;;;;;;;7.50;0.90;;;6.20;99.90;;;;;;5029057;28;20480;-67
2024/03/13 04:35:25;;;;;;;6.30;0.73;;;6.30;99.90;;;;;;5028684;28;20468;-67
2024/03/13 04:37:53;;;;;;;6.80;0.90;;;6.20;99.90;;;;;;5030679;28;20969;-67
2024/03/13 04:40:22;;;;;;;6.30;0.83;;;6.20;99.90;;;;;;5030903;28;21045;-67
2024/03/13 04:42:50;;;;;;;6.50;0.73;;;6.20;99.90;;;;;;5034069;28;20503;-67
2024/03/13 04:45:18;;;;;;;6.70;0.83;;;6.20;99.90;;;;;;5039299;28;21000;-67
2024/03/13 04:47:46;;;;;;;6.60;1.13;;;6.30;99.90;;;;;;5033926;28;20440;-68
2024/03/13 04:50:15;;;;;;;7.33;1.20;;;6.30;99.90;;;;;;5030987;28;20474;-67
2024/03/13 04:52:43;;;;;;;6.77;0.90;;;6.30;99.90;;;;;;5032577;28;20958;-66
2024/03/13 04:55:11;;;;;;;8.37;2.10;;;6.30;99.90;;;;;;5031619;28;20469;-67
2024/03/13 04:57:40;;;;;;;7.33;1.77;;;6.30;99.90;;;;;;5034333;28;20478;-67
2024/03/13 05:00:09;;;;;;;8.17;1.47;;;6.30;99.90;;;;;;5032141;28;20920;-66
2024/03/13 05:02:38;;;;;;;7.57;1.10;;;6.30;99.90;;;;;;5036318;28;20459;-66
2024/03/13 05:05:13;;;;;;;6.43;0.87;;;6.20;99.90;;;;;;5027324;28;21034;-67
2024/03/13 05:07:43;;;;;;;6.50;0.67;;;6.30;99.90;;;;;;5035011;28;20566;-67
2024/03/13 05:10:14;;;;;;;6.97;1.23;;;6.30;99.90;;;;;;5032871;28;20466;-67
2024/03/13 05:12:43;;;;;;;7.23;1.20;;;6.40;99.90;;;;;;5032332;28;20557;-67
2024/03/13 05:15:12;;;;;;;6.50;0.90;;;6.40;99.90;;;;;;5032397;28;20464;-67
2024/03/13 05:17:40;;;;;;;7.20;0.83;;;6.40;99.90;;;;;;5035788;28;20521;-67
2024/03/13 05:20:11;;;;;;;6.50;0.80;;;6.30;99.90;;;;;;5030079;28;20466;-67
2024/03/13 05:22:39;;;;;;;7.43;1.00;;;6.30;99.90;;;;;;5031723;28;20446;-68
2024/03/13 05:25:10;;;;;;;7.30;0.90;;;6.30;99.90;;;;;;5030590;28;20522;-67
2024/03/13 05:27:39;;;;;;;6.50;1.00;;;6.30;99.90;;;;;;5038711;28;20516;-68
2024/03/13 05:30:10;;;;;;;6.40;0.80;;;6.30;99.90;;;;;;5048080;28;20547;-67
2024/03/13 05:32:38;;;;;;;7.33;1.20;;;6.30;99.90;;;;;;5032098;28;20480;-67
2024/03/13 05:35:08;;;;;;;6.30;0.93;;;6.40;99.90;;;;;;5033278;28;20476;-69
2024/03/13 05:37:36;;;;;;;7.10;0.80;;;6.30;99.90;;;;;;5031113;28;20891;-67
2024/03/13 05:40:12;;;;;;;8.07;1.27;;;6.40;99.90;;;;;;5029667;28;20464;-69
2024/03/13 05:42:41;;;;;;;6.67;0.90;;;6.50;99.90;;;;;;5026697;28;21084;-66
2024/03/13 05:45:10;;;;;;;6.10;0.70;;;6.50;99.90;;;;;;5032629;28;21099;-68
2024/03/13 05:47:38;;;;;;;6.50;0.80;;;6.50;99.90;;;;;;5033822;28;20471;-67
2024/03/13 05:50:07;;;;;;;6.13;0.57;;;6.60;99.90;;;;;;5029778;28;20495;-66
2024/03/13 05:52:35;;;;;;;6.27;1.00;;;6.60;99.90;;;;;;5031325;28;20441;-67
2024/03/13 05:55:03;;;;;;;7.17;0.90;;;6.60;99.90;;;;;;5032122;28;20485;-67
2024/03/13 05:57:31;;;;;;;6.37;0.80;;;6.70;99.90;;;;;;5031343;28;20476;-67
2024/03/13 05:59:59;;;;;;;6.73;1.07;;;6.70;99.90;;;;;;5033265;28;20921;-67
2024/03/13 06:02:30;;;;;;;6.40;0.93;;;6.70;99.90;;;;;;5031306;28;20512;-68
2024/03/13 06:05:09;;;;;;;6.77;1.30;;;6.60;99.90;;;;;;5028080;28;20494;-63
2024/03/13 06:07:38;;;;;;;6.87;1.07;;;6.60;99.90;;;;;;5023778;28;20520;-68
2024/03/13 06:10:08;;;;;;;6.67;1.20;;;6.70;99.90;;;;;;5033740;28;20563;-66
2024/03/13 06:12:36;;;;;;;6.37;0.97;;;6.70;99.90;;;;;;5031818;28;20449;-67
2024/03/13 06:15:07;;;;;;;7.90;1.47;;;6.80;99.90;;;;;;5032192;28;20451;-65
2024/03/13 06:17:35;;;;;;;8.33;2.40;;;6.90;99.90;;;;;;5032206;28;20484;-66
2024/03/13 06:20:06;;;;;;;7.00;1.60;;;6.90;99.90;;;;;;5031154;28;20465;-67
2024/03/13 06:22:35;;;;;;;9.03;1.47;;;6.90;99.90;;;;;;5033895;28;20510;-65
2024/03/13 06:25:06;;;;;;;6.90;1.47;;;6.90;99.90;;;;;;5032237;28;20555;-66
2024/03/13 06:27:35;;;;;;;7.63;1.93;;;7.00;99.90;;;;;;5031013;28;20995;-65
2024/03/13 06:30:02;;;;;;;7.27;1.43;;;7.00;99.90;;;;;;5031309;28;20966;-67
2024/03/13 06:32:30;;;;;;;8.53;1.90;;;7.00;99.90;;;;;;5030832;28;20445;-67
2024/03/13 06:35:00;;;;;;;8.03;2.20;;;7.20;99.90;;;;;;5031652;28;20932;-67
2024/03/13 06:37:29;;;;;;;7.27;1.47;;;7.20;99.90;;;;;;5032190;28;20445;-66
2024/03/13 06:39:57;;;;;;;6.40;1.20;;;7.20;99.90;;;;;;5031905;28;20467;-66
2024/03/13 06:42:26;;;;;;;9.53;1.60;;;7.20;99.90;;;;;;5031049;28;20964;-67
2024/03/13 06:44:54;;;;;;;7.10;1.70;;;7.20;99.90;;;;;;5031697;28;20518;-66
2024/03/13 06:47:22;;;;;;;8.43;1.60;;;7.40;99.90;;;;;;5031611;28;20810;-66
2024/03/13 06:49:51;;;;;;;6.80;1.23;;;7.50;99.90;;;;;;5037905;28;20492;-67
2024/03/13 06:52:19;;;;;;;7.13;1.43;;;7.60;99.90;;;;;;5030984;28;20449;-66
2024/03/13 06:54:47;;;;;;;7.97;1.70;;;7.60;99.90;;;;;;5031649;28;20438;-65
2024/03/13 06:57:15;;;;;;;8.03;1.60;;;7.60;99.90;;;;;;5032707;28;20444;-67
2024/03/13 06:59:44;;;;;;;6.77;1.67;;;7.70;99.90;;;;;;5031433;28;20469;-66
2024/03/13 07:02:13;;;;;;;7.77;1.80;;;7.80;99.90;;;;;;5029955;28;20486;-67
2024/03/13 07:04:42;;;;;;;7.20;1.80;;;7.90;99.90;;;;;;5031246;28;20536;-67
2024/03/13 07:07:10;;;;;;;8.87;1.90;;;7.90;99.90;;;;;;5031214;28;20529;-66
2024/03/13 07:09:39;;;;;;;7.13;1.83;;;8.00;99.90;;;;;;5031304;28;20557;-66
2024/03/13 07:12:07;;;;;;;7.37;2.07;;;8.20;99.90;;;;;;5037686;28;20479;-66
2024/03/13 07:14:35;;;;;;;7.97;2.50;;;8.30;99.90;;;;;;5031141;28;20453;-66
2024/03/13 07:17:03;;;;;;;7.20;1.80;;;8.40;99.90;;;;;;5031055;28;20439;-66
2024/03/13 07:19:33;;;;;;;7.80;1.80;;;8.50;99.90;;;;;;5031278;28;20447;-66
2024/03/13 07:22:01;;;;;;;9.50;2.17;;;8.50;99.90;;;;;;5030502;28;21157;-66
2024/03/13 07:24:30;;;;;;;7.37;2.23;;;8.60;99.90;;;;;;5030794;28;20444;-66
2024/03/13 07:26:58;;;;;;;7.60;2.30;;;8.50;99.90;;;;;;5036418;28;20490;-67
2024/03/13 07:29:27;;;;;;;8.30;2.30;;;8.60;99.90;;;;;;5031578;28;20443;-67
2024/03/13 07:31:56;;;;;;;8.80;2.20;;;8.60;99.90;;;;;;5030140;28;20447;-67
2024/03/13 07:34:24;;;;;;;7.97;2.53;;;8.60;99.90;;;;;;5030739;28;20447;-67
2024/03/13 07:36:52;;;;;;;9.10;2.50;;;8.70;99.90;;;;;;5030608;28;20535;-67
2024/03/13 07:39:21;;;;;;;7.70;2.50;;;8.90;99.90;;;;;;5028910;28;20488;-67
2024/03/13 07:41:49;;;;;;;9.17;2.73;;;8.90;99.90;;;;;;5028158;28;20481;-66
2024/03/13 07:44:17;;;;;;;8.00;2.70;;;9.00;99.90;;;;;;5029592;28;20535;-67
2024/03/13 07:46:45;;;;;;;11.40;2.77;;;9.00;99.90;;;;;;5036401;28;20809;-67
2024/03/13 07:49:14;;;;;;;9.20;2.83;;;9.10;99.90;;;;;;5038119;28;20436;-68
2024/03/13 07:51:45;;;;;;;8.27;2.80;;;9.00;99.90;;;;;;5030686;28;20541;-66
2024/03/13 07:54:13;;;;;;;7.90;2.47;;;9.00;99.90;;;;;;5038290;28;20452;-67
2024/03/13 07:56:41;;;;;;;8.03;2.63;;;9.10;99.90;;;;;;5039982;28;20489;-67
2024/03/13 07:59:10;;;;;;;8.67;3.47;;;9.10;99.90;;;;;;5040142;28;20496;-67
2024/03/13 08:01:41;;;;;;;9.10;3.07;;;9.20;99.90;;;;;;5033079;28;20508;-67
2024/03/13 08:04:11;;;;;;;8.00;2.80;;;9.30;99.90;;;;;;5040635;28;20438;-67
2024/03/13 08:06:39;;;;;;;9.50;3.10;;;9.30;99.90;;;;;;5039686;28;20451;-66
2024/03/13 08:09:28;;;;;;;8.67;3.17;;;9.30;99.90;;;;;;5031228;28;20561;-65
2024/03/13 08:12:13;;;;;;;10.87;3.80;;;9.20;99.90;;;;;;5032234;28;20430;-67
2024/03/13 08:14:59;;;;;;;7.83;2.80;;;9.20;99.90;;;;;;5032832;28;20485;-67
2024/03/13 08:17:45;;;;;;;10.60;3.60;;;9.30;99.90;;;;;;5032741;28;20958;-67
2024/03/13 08:20:30;;;;;;;10.60;3.70;;;9.30;99.90;;;;;;5033080;28;20490;-68
2024/03/13 08:23:17;;;;;;;9.30;3.83;;;9.40;99.90;;;;;;5033642;28;20493;-69
2024/03/13 08:26:03;;;;;;;9.30;3.70;;;9.40;99.90;;;;;;5033357;28;20426;-66
2024/03/13 08:28:50;;;;;;;9.10;3.30;;;9.50;99.90;;;;;;5033701;28;20427;-67
2024/03/13 08:31:37;;;;;;;8.43;3.60;;;9.50;99.90;;;;;;5032730;28;20458;-66
2024/03/13 08:34:22;;;;;;;9.50;3.57;;;9.60;99.90;;;;;;5033360;28;20544;-66
2024/03/13 08:37:08;;;;;;;10.00;3.80;;;9.70;99.90;;;;;;5033203;28;20516;-66
2024/03/13 08:39:53;;;;;;;9.23;4.00;;;9.80;99.90;;;;;;5036695;28;20474;-66
2024/03/13 08:42:40;;;;;;;9.30;3.63;;;9.90;99.90;;;;;;5032524;28;20479;-67
2024/03/13 08:45:26;;;;;;;9.50;3.40;;;10.00;99.90;;;;;;5033381;28;20590;-66
2024/03/13 08:48:12;;;;;;;12.20;3.90;;;10.00;99.90;;;;;;5033025;28;20516;-67
2024/03/13 08:50:59;;;;;;;10.47;4.27;;;10.10;99.90;;;;;;5032524;28;20465;-67
2024/03/13 08:53:47;;;;;;;9.67;3.63;;;10.10;99.90;;;;;;5034720;28;20570;-68
2024/03/13 08:56:37;;;;;;;11.83;5.37;;;10.30;99.90;;;;;;5033554;28;20446;-66
2024/03/13 08:59:23;;;;;;;11.47;3.70;;;10.30;99.90;;;;;;5032970;28;20425;-66
2024/03/13 09:02:08;;;;;;;9.30;3.87;;;10.50;99.90;;;;;;5032491;28;20432;-67
2024/03/13 09:04:54;;;;;;;10.77;4.13;;;10.60;99.90;;;;;;5032894;28;20956;-67
2024/03/13 09:07:40;;;;;;;8.70;3.43;;;10.70;99.90;;;;;;5032724;28;20437;-68
2024/03/13 09:10:12;;;;;;;10.63;3.77;;;10.90;99.90;;;;;;5035369;28;20467;-68
2024/03/13 09:12:40;;;;;;;9.07;3.60;;;10.90;99.90;;;;;;5022840;28;20429;-68
2024/03/13 09:15:09;;;;;;;10.77;4.17;;;10.90;99.90;;;;;;5030200;28;20436;-67
2024/03/13 09:17:38;;;;;;;9.60;3.53;;;11.00;99.90;;;;;;5030484;28;20441;-68
2024/03/13 09:20:07;;;;;;;8.57;3.13;;;11.20;99.90;;;;;;5030165;28;20643;-67
2024/03/13 09:22:35;;;;;;;10.50;4.03;;;11.40;99.90;;;;;;5029714;28;21141;-68
2024/03/13 09:25:03;;;;;;;9.90;3.47;;;11.50;99.90;;;;;;5030291;28;20960;-68
2024/03/13 09:27:31;;;;;;;8.93;3.53;;;11.40;99.90;;;;;;5035101;28;20458;-68
2024/03/13 09:30:02;;;;;;;9.10;4.07;;;11.50;99.90;;;;;;5033580;28;20972;-67
2024/03/13 09:32:31;;;;;;;9.23;3.70;;;11.50;99.90;;;;;;5033518;28;20453;-68
2024/03/13 09:34:59;;;;;;;10.47;3.60;;;11.60;99.90;;;;;;5033570;28;20486;-69
2024/03/13 09:37:27;;;;;;;9.40;3.57;;;11.70;99.90;;;;;;5033478;28;20452;-68
2024/03/13 09:39:55;;;;;;;9.17;3.80;;;11.70;99.90;;;;;;5033453;28;21116;-67
2024/03/13 09:42:23;;;;;;;10.07;3.80;;;11.70;99.90;;;;;;5033927;28;20493;-68
2024/03/13 09:44:52;;;;;;;9.93;3.60;;;11.50;99.90;;;;;;5033421;28;20946;-68
2024/03/13 09:47:21;;;;;;;8.80;3.40;;;11.60;99.90;;;;;;5033577;28;20541;-68
2024/03/13 09:49:50;;;;;;;9.40;3.60;;;11.70;99.90;;;;;;5033222;28;21000;-68
2024/03/13 09:52:18;;;;;;;8.43;3.70;;;11.70;99.90;;;;;;5032874;28;20922;-68
2024/03/13 09:54:46;;;;;;;9.67;3.80;;;11.70;99.90;;;;;;5033424;28;20442;-68
2024/03/13 09:57:15;;;;;;;9.80;3.37;;;11.80;99.90;;;;;;5034255;28;21089;-69
2024/03/13 09:59:43;;;;;;;9.10;3.20;;;11.80;99.90;;;;;;5033113;28;20505;-68
2024/03/13 10:02:12;;;;;;;10.60;3.73;;;11.80;99.90;;;;;;5032943;28;20505;-68
2024/03/13 10:04:40;;;;;;;9.67;4.10;;;11.90;99.90;;;;;;5033385;28;20890;-68
2024/03/13 10:07:08;;;;;;;7.70;2.70;;;11.90;99.90;;;;;;5032990;28;21114;-68
2024/03/13 10:09:36;;;;;;;8.87;3.63;;;12.00;99.90;;;;;;5032902;28;20453;-68
2024/03/13 10:12:05;;;;;;;9.23;3.50;;;12.00;99.90;;;;;;5032488;28;20851;-68
2024/03/13 10:14:35;;;;;;;8.43;3.30;;;12.00;99.90;;;;;;5033907;28;20930;-68
2024/03/13 10:17:03;;;;;;;7.57;2.80;;;11.90;99.90;;;;;;5033335;28;20444;-69
2024/03/13 10:19:32;;;;;;;9.47;3.13;;;11.90;99.90;;;;;;5032737;28;20452;-68
2024/03/13 10:22:00;;;;;;;9.07;3.23;;;11.90;99.90;;;;;;5032216;28;20454;-68
2024/03/13 10:24:29;;;;;;;9.07;3.00;;;12.00;99.90;;;;;;5032362;28;20482;-68
2024/03/13 10:26:57;;;;;;;8.17;3.10;;;12.00;99.90;;;;;;5032654;28;20462;-68
2024/03/13 10:29:26;;;;;;;8.07;3.20;;;12.00;99.90;;;;;;5034016;28;20476;-67
2024/03/13 10:31:55;;;;;;;8.63;3.43;;;12.00;99.90;;;;;;5032474;28;21143;-67
2024/03/13 10:34:23;;;;;;;9.33;3.37;;;12.10;99.90;;;;;;5032514;28;20446;-68
2024/03/13 10:36:51;;;;;;;8.40;3.10;;;12.10;99.90;;;;;;5032456;28;20445;-67
2024/03/13 10:39:35;;;;;;;8.77;3.07;;;12.20;99.90;;;;;;5034581;28;20522;-68
2024/03/13 10:42:07;;;;;;;7.63;2.13;;;12.30;99.90;;;;;;5032196;28;20432;-67
2024/03/13 10:44:36;;;;;;;8.70;2.93;;;12.40;99.90;;;;;;5034483;28;20479;-68
2024/03/13 10:47:04;;;;;;;8.20;2.50;;;12.60;99.90;;;;;;5037212;28;20543;-67
2024/03/13 10:49:33;;;;;;;8.97;3.27;;;12.80;99.90;;;;;;5031914;28;20476;-68
2024/03/13 10:52:03;;;;;;;8.97;2.40;;;13.00;99.90;;;;;;5032022;28;20441;-68
2024/03/13 10:54:31;;;;;;;7.60;2.50;;;13.20;99.90;;;;;;5032415;28;20497;-68
2024/03/13 10:56:59;;;;;;;8.23;2.50;;;13.20;99.90;;;;;;5032152;28;20513;-68
2024/03/13 10:59:28;;;;;;;8.10;2.80;;;13.30;99.90;;;;;;5031932;28;20448;-68
2024/03/13 11:01:57;;;;;;;8.90;3.20;;;13.50;99.90;;;;;;5039391;28;20439;-68
2024/03/13 11:04:26;;;;;;;7.97;2.60;;;13.50;99.90;;;;;;5032041;28;20868;-68
2024/03/13 11:06:55;;;;;;;9.20;2.97;;;13.50;99.90;;;;;;5032168;28;20539;-69
2024/03/13 11:09:23;;;;;;;8.27;2.30;;;13.40;99.90;;;;;;5032054;28;20440;-68
2024/03/13 11:11:52;;;;;;;8.53;3.10;;;13.40;99.90;;;;;;5031471;28;20439;-68
2024/03/13 11:14:20;;;;;;;8.70;2.73;;;13.40;99.90;;;;;;5032102;28;20513;-68
2024/03/13 11:16:49;;;;;;;8.50;2.37;;;13.50;99.90;;;;;;5036837;28;20445;-68
2024/03/13 11:19:17;;;;;;;9.40;2.60;;;13.40;99.90;;;;;;5034898;28;20504;-68
2024/03/13 11:21:46;;;;;;;7.80;2.53;;;13.30;99.90;;;;;;5031057;28;20548;-68
2024/03/13 11:24:15;;;;;;;8.53;2.40;;;13.20;99.90;;;;;;5031618;28;20510;-68
2024/03/13 11:26:43;;;;;;;8.60;3.10;;;12.90;99.90;;;;;;5031451;28;20460;-68
2024/03/13 11:29:12;;;;;;;9.93;3.17;;;13.00;99.90;;;;;;5031386;28;20924;-68
2024/03/13 11:31:41;;;;;;;8.50;3.60;;;12.80;99.90;;;;;;5031022;28;20490;-69
2024/03/13 11:34:09;;;;;;;9.23;3.60;;;12.70;99.90;;;;;;5040418;28;20487;-68
2024/03/13 11:36:37;;;;;;;8.90;3.30;;;12.60;99.90;;;;;;5031315;28;20447;-69
2024/03/13 11:39:05;;;;;;;8.73;3.87;;;12.60;99.90;;;;;;5012181;28;20464;-68
2024/03/13 11:41:34;;;;;;;8.73;3.47;;;12.80;99.90;;;;;;5029689;28;20535;-68
2024/03/13 11:44:02;;;;;;;8.97;3.30;;;12.80;99.90;;;;;;5031492;28;20492;-68
2024/03/13 11:46:43;;;;;;;8.37;3.37;;;12.70;99.90;;;;;;5031309;28;20509;-68
2024/03/13 11:49:13;;;;;;;9.33;4.00;;;12.60;99.90;;;;;;5031762;28;20961;-68
2024/03/13 11:52:12;;;;;;;10.17;3.53;;;12.40;99.90;;;;;;5022985;28;20471;-68
2024/03/13 11:54:40;;;;;;;9.07;3.50;;;12.60;99.90;;;;;;5047657;28;21157;-68
2024/03/13 11:57:09;;;;;;;15.50;6.30;;;12.80;99.90;;;;;;5031152;28;20527;-68
2024/03/13 11:59:44;;;;;;;11.20;3.40;;;12.90;99.90;;;;;;5031102;28;20543;-69
2024/03/13 12:02:39;;;;;;;9.63;3.40;;;13.00;99.90;;;;;;5030688;28;20439;-69
2024/03/13 12:05:10;;;;;;;9.90;3.57;;;13.10;99.90;;;;;;5048642;28;20471;-68
2024/03/13 12:07:40;;;;;;;9.17;3.47;;;13.20;99.90;;;;;;5031366;28;21402;-68
2024/03/13 12:10:11;;;;;;;9.63;2.60;;;13.10;99.90;;;;;;5031292;28;20467;-68
2024/03/13 12:12:39;;;;;;;7.70;3.10;;;13.10;99.90;;;;;;5030898;28;20451;-68
2024/03/13 12:15:10;;;;;;;9.70;3.57;;;13.30;99.90;;;;;;5031069;28;20445;-66
2024/03/13 12:17:38;;;;;;;9.97;3.50;;;13.40;99.90;;;;;;5031567;28;20809;-68
2024/03/13 12:20:12;;;;;;;8.73;2.60;;;13.70;99.90;;;;;;5031173;28;20495;-68
2024/03/13 12:22:40;;;;;;;9.53;3.13;;;14.00;99.90;;;;;;5032497;28;20443;-68
2024/03/13 12:25:08;;;;;;;9.70;3.00;;;14.10;99.90;;;;;;5030827;28;20472;-68
2024/03/13 12:27:44;;;;;;;8.27;3.43;;;14.10;99.90;;;;;;5030885;28;20462;-68
2024/03/13 12:30:12;;;;;;;12.03;4.20;;;14.00;99.90;;;;;;5030676;28;20466;-69
2024/03/13 12:32:40;;;;;;;9.10;3.93;;;13.70;99.90;;;;;;5030191;28;20499;-68
2024/03/13 12:35:10;;;;;;;9.40;3.47;;;13.50;99.90;;;;;;5030735;28;20436;-69
2024/03/13 12:37:38;;;;;;;10.90;3.73;;;13.30;99.90;;;;;;5039385;28;20470;-69
2024/03/13 12:40:08;;;;;;;8.40;3.90;;;13.50;99.90;;;;;;5029647;28;20999;-67
2024/03/13 12:42:38;;;;;;;8.80;3.53;;;13.90;99.90;;;;;;5029669;28;20436;-69
2024/03/13 12:45:07;;;;;;;9.10;3.33;;;14.30;99.90;;;;;;5030054;28;20496;-69
2024/03/13 12:47:35;;;;;;;8.80;3.10;;;14.60;99.90;;;;;;5029910;28;20927;-69
2024/03/13 12:50:06;;;;;;;7.30;2.50;;;14.70;99.90;;;;;;5033659;28;20472;-68
2024/03/13 12:52:35;;;;;;;7.70;2.43;;;14.30;99.90;;;;;;5029423;28;20440;-68
2024/03/13 12:55:05;;;;;;;8.10;3.00;;;13.90;99.90;;;;;;5030221;28;20440;-69
2024/03/13 12:57:36;;;;;;;7.60;2.27;;;13.50;99.90;;;;;;5029846;28;20460;-69
2024/03/13 13:00:14;;;;;;;7.50;2.20;;;13.40;99.90;;;;;;5029887;28;20455;-69
2024/03/13 13:02:43;;;;;;;7.80;2.37;;;13.50;99.90;;;;;;5034938;28;20439;-68
2024/03/13 13:05:12;;;;;;;7.00;1.90;;;13.40;99.90;;;;;;5033456;28;20467;-68
2024/03/13 13:07:50;;;;;;;11.20;3.93;;;13.60;99.90;;;;;;5033590;28;20446;-69
2024/03/13 13:10:20;;;;;;;8.57;2.17;;;13.60;99.90;;;;;;5033600;28;20456;-68
2024/03/13 13:12:48;;;;;;;7.80;2.20;;;13.70;99.90;;;;;;5033146;28;20933;-68
2024/03/13 13:15:17;;;;;;;7.50;2.57;;;13.80;99.90;;;;;;5033152;28;20440;-69
2024/03/13 13:17:47;;;;;;;7.83;2.33;;;13.60;99.90;;;;;;5038443;28;21050;-69
2024/03/13 13:20:15;;;;;;;7.90;2.57;;;13.60;99.90;;;;;;5032846;28;20472;-69
2024/03/13 13:22:44;;;;;;;7.90;2.40;;;13.30;99.90;;;;;;5023649;28;20467;-68
2024/03/13 13:25:13;;;;;;;8.00;2.50;;;13.10;99.90;;;;;;5031963;28;20481;-69
2024/03/13 13:27:42;;;;;;;10.20;3.50;;;12.70;99.90;;;;;;5032031;28;20471;-68